createdAt,value
2022-07-26T00:02:20.388Z,2.10
2022-07-26T00:04:46.936Z,2.30
2022-07-26T00:07:13.521Z,2.57
2022-07-26T00:09:43.824Z,2.00
2022-07-26T00:12:14.314Z,2.40
2022-07-26T00:14:40.857Z,1.97
2022-07-26T00:17:07.557Z,2.27
2022-07-26T00:19:33.995Z,1.90
2022-07-26T00:22:19.206Z,2.10
2022-07-26T00:24:45.662Z,1.90
2022-07-26T00:27:12.094Z,2.40
2022-07-26T00:29:38.540Z,2.40
2022-07-26T00:32:05.389Z,2.30
2022-07-26T00:34:31.970Z,1.97
2022-07-26T00:36:58.409Z,1.87
2022-07-26T00:39:24.999Z,2.60
2022-07-26T00:41:51.531Z,2.00
2022-07-26T00:44:18.027Z,2.67
2022-07-26T00:46:44.775Z,2.03
2022-07-26T00:49:12.287Z,2.23
2022-07-26T00:51:39.440Z,2.30
2022-07-26T00:54:06.759Z,2.30
2022-07-26T00:56:34.045Z,2.53
2022-07-26T00:59:00.813Z,2.50
2022-07-26T01:01:27.481Z,2.40
2022-07-26T01:03:54.454Z,2.60
2022-07-26T01:06:26.995Z,2.33
2022-07-26T01:08:53.998Z,2.80
2022-07-26T01:11:20.429Z,2.50
2022-07-26T01:13:48.812Z,2.20
2022-07-26T01:16:15.437Z,3.27
2022-07-26T01:18:41.956Z,3.20
2022-07-26T01:21:13.833Z,2.17
2022-07-26T01:23:41.224Z,2.70
2022-07-26T01:26:07.722Z,2.67
2022-07-26T01:28:39.332Z,3.20
2022-07-26T01:31:06.521Z,2.80
2022-07-26T01:33:34.556Z,2.63
2022-07-26T01:36:01.711Z,2.93
2022-07-26T01:38:28.528Z,3.40
2022-07-26T01:40:54.998Z,2.70
2022-07-26T01:43:21.459Z,2.80
2022-07-26T01:45:48.086Z,3.37
2022-07-26T01:48:14.743Z,2.70
2022-07-26T01:50:41.346Z,2.67
2022-07-26T01:53:07.942Z,2.70
2022-07-26T01:55:35.112Z,2.70
2022-07-26T01:58:01.614Z,3.20
2022-07-26T02:00:29.068Z,3.10
2022-07-26T02:02:55.578Z,2.73
2022-07-26T02:05:22.218Z,2.70
2022-07-26T02:07:48.922Z,3.27
2022-07-26T02:10:17.260Z,3.10
2022-07-26T02:12:44.290Z,3.00
2022-07-26T02:15:11.989Z,2.73
2022-07-26T02:17:38.439Z,2.87
2022-07-26T02:20:05.918Z,2.47
2022-07-26T02:22:32.360Z,3.40
2022-07-26T02:25:04.513Z,2.97
2022-07-26T02:27:31.745Z,3.70
2022-07-26T02:29:58.205Z,3.20
2022-07-26T02:32:24.659Z,3.17
2022-07-26T02:34:51.098Z,3.13
2022-07-26T02:37:17.560Z,3.07
2022-07-26T02:39:44.006Z,3.43
2022-07-26T02:42:10.557Z,3.13
2022-07-26T02:44:37.157Z,3.47
2022-07-26T02:47:03.652Z,2.90
2022-07-26T02:49:30.114Z,3.23
2022-07-26T02:51:56.537Z,3.30
2022-07-26T02:54:23.065Z,2.93
2022-07-26T02:56:49.471Z,2.97
2022-07-26T02:59:15.957Z,3.83
2022-07-26T03:01:42.436Z,2.83
2022-07-26T03:04:09.255Z,3.30
2022-07-26T03:06:35.974Z,2.80
2022-07-26T03:09:02.662Z,3.00
2022-07-26T03:11:29.081Z,3.07
2022-07-26T03:13:55.523Z,3.27
2022-07-26T03:16:24.886Z,3.30
2022-07-26T03:18:55.333Z,3.43
2022-07-26T03:21:21.791Z,3.07
2022-07-26T03:23:48.288Z,3.20
2022-07-26T03:26:15.563Z,3.07
2022-07-26T03:28:42.619Z,3.10
2022-07-26T03:31:09.188Z,2.80
2022-07-26T03:33:35.755Z,3.20
2022-07-26T03:36:02.259Z,2.90
2022-07-26T03:38:29.004Z,3.80
2022-07-26T03:40:55.421Z,3.90
2022-07-26T03:43:23.428Z,2.63
2022-07-26T03:45:50.650Z,3.97
2022-07-26T03:48:17.182Z,3.33
2022-07-26T03:50:43.660Z,3.30
2022-07-26T03:53:10.125Z,3.20
2022-07-26T03:55:55.309Z,3.43
2022-07-26T03:58:21.963Z,4.00
2022-07-26T04:00:48.406Z,3.30
2022-07-26T04:03:15.030Z,4.03
2022-07-26T04:05:48.630Z,3.07
2022-07-26T04:08:16.018Z,3.17
2022-07-26T04:10:46.076Z,3.27
2022-07-26T04:13:12.511Z,3.00
2022-07-26T04:15:38.972Z,3.33
2022-07-26T04:18:05.399Z,4.93
2022-07-26T04:20:31.890Z,3.87
2022-07-26T04:22:58.317Z,4.20
2022-07-26T04:25:24.951Z,3.20
2022-07-26T04:27:51.407Z,3.20
2022-07-26T04:30:18.091Z,3.57
2022-07-26T04:32:46.632Z,3.20
2022-07-26T04:35:13.806Z,3.57
2022-07-26T04:37:41.298Z,3.40
2022-07-26T04:40:08.697Z,3.30
2022-07-26T04:42:35.426Z,4.00
2022-07-26T04:45:07.756Z,3.50
2022-07-26T04:47:34.854Z,3.00
2022-07-26T04:50:01.778Z,3.80
2022-07-26T04:52:28.207Z,2.90
2022-07-26T04:54:54.692Z,3.67
2022-07-26T04:57:21.122Z,3.40
2022-07-26T04:59:58.134Z,4.03
2022-07-26T05:02:34.180Z,3.47
2022-07-26T05:05:00.656Z,3.13
2022-07-26T05:07:27.072Z,3.10
2022-07-26T05:09:53.949Z,3.57
2022-07-26T05:12:20.366Z,3.90
2022-07-26T05:14:46.842Z,3.73
2022-07-26T05:17:13.589Z,3.23
2022-07-26T05:19:48.967Z,3.20
2022-07-26T05:22:15.713Z,2.77
2022-07-26T05:24:42.188Z,3.47
2022-07-26T05:27:08.627Z,2.83
2022-07-26T05:29:35.078Z,3.23
2022-07-26T05:32:01.707Z,3.27
2022-07-26T05:34:28.142Z,3.60
2022-07-26T05:36:54.583Z,4.10
2022-07-26T05:39:21.029Z,3.53
2022-07-26T05:41:47.478Z,3.73
2022-07-26T05:44:15.290Z,4.80
2022-07-26T05:46:41.751Z,3.00
2022-07-26T05:49:08.436Z,2.83
2022-07-26T05:51:35.126Z,3.33
2022-07-26T05:54:01.535Z,3.20
2022-07-26T05:56:27.962Z,3.30
2022-07-26T05:58:54.391Z,2.97
2022-07-26T06:01:20.833Z,3.50
2022-07-26T06:03:49.163Z,2.87
2022-07-26T06:06:15.628Z,3.23
2022-07-26T06:08:42.051Z,3.47
2022-07-26T06:11:08.555Z,3.00
2022-07-26T06:13:34.981Z,3.40
2022-07-26T06:16:01.403Z,3.87
2022-07-26T06:18:27.828Z,3.30
2022-07-26T06:20:54.447Z,2.90
2022-07-26T06:23:30.876Z,3.13
2022-07-26T06:26:01.436Z,2.70
2022-07-26T06:28:27.907Z,2.53
2022-07-26T06:30:54.327Z,2.37
2022-07-26T06:33:20.747Z,2.47
2022-07-26T06:35:47.154Z,2.30
2022-07-26T06:38:13.666Z,3.03
2022-07-26T06:40:40.121Z,2.50
2022-07-26T06:43:06.574Z,2.87
2022-07-26T06:45:34.008Z,2.00
2022-07-26T06:48:00.729Z,2.10
2022-07-26T06:50:27.173Z,2.00
2022-07-26T06:52:53.655Z,1.70
2022-07-26T06:55:20.075Z,2.30
2022-07-26T06:57:49.952Z,1.40
2022-07-26T07:00:17.740Z,1.40
2022-07-26T07:02:44.208Z,1.37
2022-07-26T07:05:11.961Z,1.10
2022-07-26T07:07:38.638Z,0.87
2022-07-26T07:10:05.943Z,0.90
2022-07-26T07:12:32.799Z,0.70
2022-07-26T07:14:59.250Z,0.90
2022-07-26T07:17:25.716Z,0.70
2022-07-26T07:19:52.162Z,1.03
2022-07-26T07:22:18.583Z,1.10
2022-07-26T07:24:45.012Z,1.10
2022-07-26T07:27:13.112Z,1.10
2022-07-26T07:29:43.330Z,1.33
2022-07-26T07:32:18.232Z,1.20
2022-07-26T07:34:48.111Z,1.40
2022-07-26T07:37:15.453Z,1.40
2022-07-26T07:39:42.193Z,1.30
2022-07-26T07:42:08.839Z,1.20
2022-07-26T07:44:35.275Z,1.20
2022-07-26T07:47:01.859Z,0.83
2022-07-26T07:49:28.466Z,1.30
2022-07-26T07:51:54.946Z,1.03
2022-07-26T07:54:22.318Z,0.80
2022-07-26T07:56:49.011Z,1.00
2022-07-26T07:59:15.461Z,0.90
2022-07-26T08:01:42.657Z,1.10
2022-07-26T08:04:11.584Z,1.63
2022-07-26T08:06:38.200Z,1.50
2022-07-26T08:09:07.736Z,0.90
2022-07-26T08:11:34.660Z,1.03
2022-07-26T08:14:01.652Z,1.00
2022-07-26T08:16:28.167Z,1.00
2022-07-26T08:19:07.806Z,0.77
2022-07-26T08:21:35.426Z,1.00
2022-07-26T08:24:02.467Z,1.03
2022-07-26T08:26:28.918Z,0.80
2022-07-26T08:28:59.602Z,0.87
2022-07-26T08:31:27.658Z,1.10
2022-07-26T08:33:54.228Z,1.30
2022-07-26T08:36:20.677Z,0.93
2022-07-26T08:38:47.737Z,1.27
2022-07-26T08:41:15.060Z,0.70
2022-07-26T08:43:51.907Z,0.80
2022-07-26T08:46:25.188Z,0.80
2022-07-26T08:48:53.124Z,1.03
2022-07-26T08:51:20.290Z,0.90
2022-07-26T08:53:47.708Z,1.30
2022-07-26T08:56:14.235Z,0.90
2022-07-26T08:58:42.056Z,1.10
2022-07-26T09:01:12.705Z,1.40
2022-07-26T09:03:39.856Z,1.37
2022-07-26T09:06:14.332Z,1.50
2022-07-26T09:08:40.815Z,0.70
2022-07-26T09:11:30.032Z,0.90
2022-07-26T09:13:59.477Z,1.10
2022-07-26T09:16:26.293Z,1.10
2022-07-26T09:18:53.429Z,0.87
2022-07-26T09:21:36.270Z,0.80
2022-07-26T09:24:02.975Z,1.30
2022-07-26T09:26:29.412Z,0.73
2022-07-26T09:29:25.214Z,0.97
2022-07-26T09:31:51.715Z,1.10
2022-07-26T09:34:25.609Z,1.40
2022-07-26T09:36:54.364Z,1.23
2022-07-26T09:39:22.759Z,0.93
2022-07-26T09:42:26.714Z,0.90
2022-07-26T09:44:54.810Z,0.93
2022-07-26T09:47:21.692Z,1.07
2022-07-26T09:49:48.584Z,0.70
2022-07-26T09:52:17.479Z,1.10
2022-07-26T09:54:46.753Z,1.20
2022-07-26T09:57:16.350Z,1.10
2022-07-26T09:59:42.821Z,0.80
2022-07-26T10:02:10.214Z,1.07
2022-07-26T10:04:36.755Z,1.07
2022-07-26T10:07:03.882Z,0.80
2022-07-26T10:09:41.097Z,0.97
2022-07-26T10:12:09.067Z,0.93
2022-07-26T10:14:48.291Z,0.90
2022-07-26T10:17:29.015Z,0.93
2022-07-26T10:19:58.436Z,1.23
2022-07-26T10:22:27.664Z,0.80
2022-07-26T10:24:58.233Z,0.80
2022-07-26T10:27:41.342Z,0.93
2022-07-26T10:30:20.046Z,1.33
2022-07-26T10:33:03.741Z,0.77
2022-07-26T10:35:36.389Z,1.10
2022-07-26T10:38:22.070Z,0.90
2022-07-26T10:41:00.306Z,1.00
2022-07-26T10:43:43.202Z,1.17
2022-07-26T10:46:15.914Z,1.03
2022-07-26T10:49:06.488Z,1.23
2022-07-26T10:51:38.757Z,0.93
2022-07-26T10:54:05.160Z,1.23
2022-07-26T10:56:33.658Z,1.33
2022-07-26T10:59:01.126Z,1.03
2022-07-26T11:01:35.297Z,0.80
2022-07-26T11:04:01.969Z,0.93
2022-07-26T11:06:30.185Z,1.20
2022-07-26T11:08:56.803Z,1.00
2022-07-26T11:11:31.063Z,1.40
2022-07-26T11:14:11.860Z,1.10
2022-07-26T11:16:47.499Z,0.80
2022-07-26T11:19:21.018Z,1.30
2022-07-26T11:21:54.499Z,1.20
2022-07-26T11:24:22.096Z,1.20
2022-07-26T11:26:48.932Z,1.20
2022-07-26T11:29:17.203Z,1.00
2022-07-26T11:31:50.555Z,1.03
2022-07-26T11:34:28.712Z,1.10
2022-07-26T11:36:57.403Z,1.03
2022-07-26T11:39:24.545Z,1.17
2022-07-26T11:41:53.077Z,1.67
2022-07-26T11:44:21.719Z,1.50
2022-07-26T11:46:49.402Z,1.60
2022-07-26T11:49:18.678Z,1.83
2022-07-26T11:51:53.315Z,1.60
2022-07-26T11:54:24.106Z,1.30
2022-07-26T11:56:54.709Z,1.87
2022-07-26T11:59:21.720Z,1.70
2022-07-26T12:01:49.798Z,1.97
2022-07-26T12:04:27.905Z,2.10
2022-07-26T12:06:55.644Z,2.07
2022-07-26T12:09:36.672Z,2.03
2022-07-26T12:12:12.338Z,1.70
2022-07-26T12:14:39.797Z,2.13
2022-07-26T12:17:18.572Z,2.03
2022-07-26T12:19:45.664Z,1.80
2022-07-26T12:22:20.759Z,2.60
2022-07-26T12:24:53.360Z,1.93
2022-07-26T12:27:25.340Z,2.13
2022-07-26T12:29:54.727Z,2.00
2022-07-26T12:32:23.357Z,2.10
2022-07-26T12:35:09.206Z,2.13
2022-07-26T12:37:48.178Z,2.73
2022-07-26T12:40:23.526Z,2.10
2022-07-26T12:42:49.885Z,2.50
2022-07-26T12:45:18.446Z,2.63
2022-07-26T12:47:47.442Z,1.90
2022-07-26T12:50:14.912Z,2.07
2022-07-26T12:52:42.252Z,2.30
2022-07-26T12:55:15.196Z,1.80
2022-07-26T12:57:46.240Z,2.23
2022-07-26T13:00:15.789Z,2.20
2022-07-26T13:02:43.699Z,1.93
2022-07-26T13:05:11.542Z,2.00
2022-07-26T13:07:38.623Z,1.57
2022-07-26T13:10:36.135Z,2.23
2022-07-26T13:12:52.809Z,1.80
2022-07-26T13:15:19.269Z,1.93
2022-07-26T13:17:45.883Z,2.13
2022-07-26T13:20:12.394Z,1.70
2022-07-26T13:22:39.720Z,1.50
2022-07-26T13:25:08.759Z,1.63
2022-07-26T13:27:36.143Z,2.50
2022-07-26T13:30:05.134Z,2.33
2022-07-26T13:32:31.587Z,1.73
2022-07-26T13:34:58.030Z,1.80
2022-07-26T13:37:24.948Z,1.80
2022-07-26T13:39:51.428Z,1.90
2022-07-26T13:42:19.314Z,1.60
2022-07-26T13:44:45.963Z,2.30
2022-07-26T13:47:12.535Z,1.50
2022-07-26T13:49:39.057Z,1.50
2022-07-26T13:52:05.849Z,1.57
2022-07-26T13:54:34.609Z,1.60
2022-07-26T13:57:03.061Z,1.33
2022-07-26T13:59:29.694Z,1.30
2022-07-26T14:01:56.509Z,1.20
2022-07-26T14:04:23.869Z,1.83
2022-07-26T14:06:50.615Z,1.40
2022-07-26T14:09:17.982Z,1.50
2022-07-26T14:11:45.245Z,1.60
2022-07-26T14:14:12.423Z,1.27
2022-07-26T14:16:39.619Z,1.57
2022-07-26T14:19:06.548Z,1.43
2022-07-26T14:21:43.560Z,1.40
2022-07-26T14:24:21.057Z,1.40
2022-07-26T14:26:47.660Z,1.67
2022-07-26T14:29:14.249Z,1.30
2022-07-26T14:31:40.988Z,1.37
2022-07-26T14:34:07.631Z,1.20
2022-07-26T14:36:34.231Z,1.60
2022-07-26T14:39:00.875Z,1.27
2022-07-26T14:41:27.575Z,1.47
2022-07-26T14:43:55.826Z,1.17
2022-07-26T14:46:22.569Z,1.40
2022-07-26T14:48:54.399Z,1.37
2022-07-26T14:51:21.547Z,1.27
2022-07-26T14:53:48.002Z,1.23
2022-07-26T14:56:14.693Z,1.67
2022-07-26T14:58:41.155Z,0.97
2022-07-26T15:01:07.927Z,1.10
2022-07-26T15:03:34.619Z,1.30
2022-07-26T15:06:01.072Z,1.63
2022-07-26T15:08:27.564Z,1.10
2022-07-26T15:10:54.095Z,1.40
2022-07-26T15:13:20.613Z,1.40
2022-07-26T15:15:47.573Z,1.27
2022-07-26T15:18:14.036Z,1.20
2022-07-26T15:20:41.973Z,1.20
2022-07-26T15:23:09.681Z,1.43
2022-07-26T15:25:38.417Z,1.30
2022-07-26T15:28:05.416Z,1.17
2022-07-26T15:30:35.615Z,1.23
2022-07-26T15:33:02.158Z,0.90
2022-07-26T15:35:29.596Z,1.13
2022-07-26T15:37:56.483Z,1.20
2022-07-26T15:40:23.152Z,1.07
2022-07-26T15:42:51.938Z,1.00
2022-07-26T15:45:20.219Z,1.27
2022-07-26T15:48:03.183Z,0.97
2022-07-26T15:50:35.062Z,1.10
2022-07-26T15:53:01.571Z,1.07
2022-07-26T15:55:28.253Z,1.13
2022-07-26T15:57:54.852Z,1.17
2022-07-26T16:00:21.460Z,1.10
2022-07-26T16:02:48.039Z,1.23
2022-07-26T16:05:14.975Z,1.30
2022-07-26T16:07:42.229Z,1.50
2022-07-26T16:10:10.563Z,1.50
2022-07-26T16:12:37.141Z,1.20
2022-07-26T16:15:04.905Z,1.00
2022-07-26T16:17:31.406Z,1.20
2022-07-26T16:19:57.898Z,1.43
2022-07-26T16:22:24.616Z,1.77
2022-07-26T16:24:51.187Z,1.20
2022-07-26T16:27:17.755Z,1.47
2022-07-26T16:29:46.782Z,1.37
2022-07-26T16:32:15.567Z,1.33
2022-07-26T16:34:42.759Z,1.37
2022-07-26T16:37:09.249Z,1.50
2022-07-26T16:39:35.672Z,1.40
2022-07-26T16:42:06.882Z,1.43
2022-07-26T16:44:33.651Z,1.40
2022-07-26T16:47:00.222Z,1.30
2022-07-26T16:49:26.824Z,1.50
2022-07-26T16:51:53.350Z,1.43
2022-07-26T16:54:20.942Z,1.67
2022-07-26T16:56:47.572Z,1.67
2022-07-26T16:59:14.401Z,1.80
2022-07-26T17:01:41.403Z,1.90
2022-07-26T17:04:09.962Z,1.93
2022-07-26T17:06:36.511Z,1.60
2022-07-26T17:09:03.405Z,1.63
2022-07-26T17:11:29.903Z,1.70
2022-07-26T17:13:56.370Z,1.90
2022-07-26T17:16:25.101Z,1.77
2022-07-26T17:18:54.062Z,1.67
2022-07-26T17:21:21.140Z,2.17
2022-07-26T17:23:48.769Z,1.40
2022-07-26T17:26:16.325Z,1.87
2022-07-26T17:28:42.942Z,1.80
2022-07-26T17:31:09.756Z,1.70
2022-07-26T17:33:36.204Z,1.67
2022-07-26T17:36:18.963Z,1.40
2022-07-26T17:38:46.912Z,1.90
2022-07-26T17:41:18.303Z,1.80
2022-07-26T17:43:47.378Z,1.60
2022-07-26T17:46:13.954Z,1.30
2022-07-26T17:48:41.755Z,1.40
2022-07-26T17:51:08.271Z,1.30
2022-07-26T17:53:34.930Z,1.57
2022-07-26T17:56:02.245Z,1.33
2022-07-26T17:58:28.797Z,1.30
2022-07-26T18:00:55.331Z,1.67
2022-07-26T18:03:23.111Z,1.63
2022-07-26T18:05:50.286Z,1.50
2022-07-26T18:08:17.099Z,1.70
2022-07-26T18:10:46.444Z,1.10
2022-07-26T18:13:15.510Z,1.47
2022-07-26T18:15:42.062Z,1.37
2022-07-26T18:18:08.745Z,1.40
2022-07-26T18:20:35.187Z,1.00
2022-07-26T18:23:02.700Z,1.23
2022-07-26T18:25:29.773Z,1.13
2022-07-26T18:27:56.287Z,1.20
2022-07-26T18:30:22.732Z,1.33
2022-07-26T18:32:49.182Z,1.27
2022-07-26T18:35:15.724Z,1.40
2022-07-26T18:37:42.279Z,1.00
2022-07-26T18:40:09.077Z,1.13
2022-07-26T18:42:36.229Z,1.10
2022-07-26T18:45:02.730Z,1.60
2022-07-26T18:47:29.468Z,1.30
2022-07-26T18:49:55.990Z,1.03
2022-07-26T18:52:31.687Z,1.40
2022-07-26T18:54:59.610Z,1.30
2022-07-26T18:57:26.087Z,1.10
2022-07-26T18:59:52.526Z,1.37
2022-07-26T19:02:19.036Z,1.20
2022-07-26T19:04:45.466Z,1.43
2022-07-26T19:07:12.065Z,0.93
2022-07-26T19:09:38.566Z,1.73
2022-07-26T19:12:05.162Z,1.20
2022-07-26T19:14:31.626Z,1.20
2022-07-26T19:16:58.406Z,1.57
2022-07-26T19:19:24.954Z,1.30
2022-07-26T19:21:51.418Z,1.27
2022-07-26T19:24:18.000Z,1.60
2022-07-26T19:26:44.587Z,1.37
2022-07-26T19:29:11.237Z,1.07
2022-07-26T19:31:40.356Z,1.40
2022-07-26T19:34:06.915Z,1.23
2022-07-26T19:36:33.388Z,1.90
2022-07-26T19:39:01.231Z,1.10
2022-07-26T19:41:27.793Z,1.03
2022-07-26T19:43:54.312Z,1.50
2022-07-26T19:46:20.823Z,1.37
2022-07-26T19:48:47.428Z,1.50
2022-07-26T19:51:13.911Z,1.00
2022-07-26T19:53:40.414Z,1.07
2022-07-26T19:56:07.803Z,0.97
2022-07-26T19:58:34.299Z,1.20
2022-07-26T20:01:01.064Z,1.00
2022-07-26T20:03:27.709Z,1.00
2022-07-26T20:05:55.652Z,0.77
2022-07-26T20:08:22.190Z,1.30
2022-07-26T20:10:48.614Z,1.20
2022-07-26T20:13:15.180Z,1.10
2022-07-26T20:15:41.909Z,2.17
2022-07-26T20:18:08.931Z,1.10
2022-07-26T20:20:35.539Z,0.80
2022-07-26T20:23:04.079Z,1.20
2022-07-26T20:25:32.078Z,1.03
2022-07-26T20:27:58.575Z,1.80
2022-07-26T20:30:25.298Z,1.10
2022-07-26T20:32:51.765Z,1.00
2022-07-26T20:35:18.265Z,1.73
2022-07-26T20:37:44.889Z,1.10
2022-07-26T20:40:12.345Z,1.03
2022-07-26T20:42:42.057Z,1.07
2022-07-26T20:45:12.900Z,1.10
2022-07-26T20:47:43.048Z,0.87
2022-07-26T20:50:10.767Z,1.03
2022-07-26T20:52:37.500Z,1.20
2022-07-26T20:55:04.438Z,1.17
2022-07-26T20:57:30.949Z,1.03
2022-07-26T20:59:57.396Z,1.20
2022-07-26T21:02:23.962Z,0.73
2022-07-26T21:04:50.582Z,1.20
2022-07-26T21:07:17.110Z,0.80
2022-07-26T21:09:43.563Z,1.00
2022-07-26T21:12:10.122Z,0.90
2022-07-26T21:14:36.577Z,1.00
2022-07-26T21:17:06.659Z,1.07
2022-07-26T21:19:36.030Z,1.40
2022-07-26T21:22:02.472Z,1.23
2022-07-26T21:24:29.061Z,1.20
2022-07-26T21:26:55.624Z,1.20
2022-07-26T21:29:22.543Z,1.33
2022-07-26T21:31:49.125Z,1.30
2022-07-26T21:34:15.583Z,1.40
2022-07-26T21:36:42.120Z,1.17
2022-07-26T21:39:09.128Z,1.03
2022-07-26T21:41:36.115Z,1.07
2022-07-26T21:44:03.962Z,1.00
2022-07-26T21:46:30.641Z,1.20
2022-07-26T21:48:57.282Z,1.00
2022-07-26T21:51:23.767Z,1.50
2022-07-26T21:53:50.333Z,0.97
2022-07-26T21:56:16.781Z,1.23
2022-07-26T21:58:43.240Z,1.10
2022-07-26T22:01:12.001Z,1.03
2022-07-26T22:03:39.499Z,1.13
2022-07-26T22:06:06.797Z,1.00
2022-07-26T22:08:33.722Z,0.80
2022-07-26T22:11:00.384Z,1.57
2022-07-26T22:13:27.140Z,1.10
2022-07-26T22:15:53.548Z,0.97
2022-07-26T22:18:20.420Z,1.23
2022-07-26T22:20:50.324Z,1.10
2022-07-26T22:23:17.759Z,1.20
2022-07-26T22:25:44.534Z,1.00
2022-07-26T22:28:11.963Z,1.03
2022-07-26T22:30:44.360Z,0.90
2022-07-26T22:33:11.839Z,1.03
2022-07-26T22:35:38.747Z,1.00
2022-07-26T22:38:08.259Z,1.20
2022-07-26T22:40:35.114Z,1.30
2022-07-26T22:43:01.664Z,1.10
2022-07-26T22:45:29.188Z,1.10
2022-07-26T22:47:56.646Z,1.20
2022-07-26T22:50:24.800Z,0.90
2022-07-26T22:52:52.240Z,1.07
2022-07-26T22:55:18.928Z,1.47
2022-07-26T22:57:45.600Z,1.47
2022-07-26T23:00:15.458Z,1.43
2022-07-26T23:02:41.936Z,1.40
2022-07-26T23:05:09.338Z,1.10
2022-07-26T23:07:37.027Z,1.53
2022-07-26T23:10:04.788Z,1.17
2022-07-26T23:12:31.275Z,1.13
2022-07-26T23:14:57.930Z,0.90
2022-07-26T23:17:24.382Z,1.47
2022-07-26T23:19:51.213Z,1.10
2022-07-26T23:22:17.685Z,1.03
2022-07-26T23:24:44.650Z,1.10
2022-07-26T23:27:14.283Z,1.20
2022-07-26T23:29:43.303Z,0.80
2022-07-26T23:32:12.474Z,1.07
2022-07-26T23:34:39.070Z,0.97
2022-07-26T23:37:05.543Z,1.30
2022-07-26T23:39:31.985Z,1.17
2022-07-26T23:41:58.665Z,1.37
2022-07-26T23:44:25.123Z,1.17
2022-07-26T23:46:51.622Z,1.07
2022-07-26T23:49:18.298Z,1.37
2022-07-26T23:51:44.924Z,1.37
2022-07-26T23:54:11.374Z,1.50
2022-07-26T23:56:37.850Z,1.40
2022-07-26T23:59:04.603Z,1.23
